»·PEaware :: AAL1180 KSLC-KABQ

AAL1180 :: KSLC-KABQ

FLIGHT INFORMATION

Flight Status: Arrived
Operator:
American Airlines
More flights by this operator :: More flights under this callsign
Pilot: Anonymous 10181 (10181)
Aircraft: MCDONNELL-DOUGLAS MD-88
(MD88)
More flights by this aircraft type
Origin: KSLC Salt Lake City Intl
United States
Destination: KABQ Albuquerque Intl Sunport
United States
More flights between these airports :: More routes between these airports
Route: ZIONZ1 KIMMR JNC ROSEI LOWBO3
File this flight plan on PilotEdge
Remarks: Happy Thursday!
Altitude:
(Current/Filed)
29,000ft
Speed:
(Current/Filed)
442kts
Departed: 12-Nov-20 05:43 PM
Arrived: 12-Nov-20 07:01 PM
Distance/Time
Traveled:
428nm/1:18
Distance/Time
To Go:
Arrived

Flight Plot

Page will automatically refresh every two minutes.

Flight plan parsing failed; only flown route is shown


Map Options




Map Legend


Flown Route
Filed Route
Departure Airport
Arrival Airport
Navaid (VOR, NDB)
Fix

Horizontal Profiles

Position Reports

Time Latitude Longitude Heading Altitude Ground
Speed
12-Nov-20 16:39 40.788162 -111.979211 85 4233ft 0kts
12-Nov-20 16:40 40.788162 -111.979211 85 4233ft 0kts
12-Nov-20 16:41 40.788162 -111.979211 85 4233ft 0kts
12-Nov-20 16:42 40.788162 -111.979211 85 4233ft 0kts
12-Nov-20 16:43 40.788162 -111.979211 85 4233ft 0kts
12-Nov-20 16:44 40.788162 -111.979211 85 4233ft 0kts
12-Nov-20 16:45 40.788162 -111.979211 85 4233ft 0kts
12-Nov-20 16:46 40.788162 -111.979211 85 4233ft 0kts
12-Nov-20 16:47 40.788162 -111.979211 85 4233ft 0kts
12-Nov-20 16:48 40.788162 -111.979211 85 4233ft 0kts
12-Nov-20 16:49 40.788162 -111.979211 85 4233ft 0kts
12-Nov-20 16:50 40.788162 -111.979211 85 4233ft 0kts
12-Nov-20 16:51 40.788162 -111.979211 85 4233ft 0kts
12-Nov-20 16:52 40.788162 -111.979211 85 4233ft 0kts
12-Nov-20 16:53 40.788162 -111.979211 85 4233ft 0kts
12-Nov-20 16:54 40.788162 -111.979211 85 4233ft 0kts
12-Nov-20 16:55 40.788162 -111.979211 85 4233ft 0kts
12-Nov-20 16:56 40.788162 -111.979211 85 4233ft 0kts
12-Nov-20 16:57 40.788162 -111.979211 85 4233ft 0kts
12-Nov-20 16:58 40.788162 -111.979211 85 4233ft 0kts
12-Nov-20 16:59 40.788162 -111.979211 85 4233ft 0kts
12-Nov-20 17:00 40.788162 -111.979211 85 4233ft 0kts
12-Nov-20 17:01 40.788162 -111.979211 85 4233ft 0kts
12-Nov-20 17:02 40.788162 -111.979211 85 4233ft 0kts
12-Nov-20 17:03 40.788162 -111.979211 85 4233ft 0kts
12-Nov-20 17:04 40.788162 -111.979211 85 4233ft 0kts
12-Nov-20 17:05 40.788162 -111.979211 85 4233ft 0kts
12-Nov-20 17:06 40.788162 -111.979211 85 4233ft 0kts
12-Nov-20 17:07 40.788162 -111.979211 85 4233ft 0kts
12-Nov-20 17:08 40.788162 -111.979211 85 4233ft 0kts
12-Nov-20 17:09 40.788162 -111.979211 85 4233ft 0kts
12-Nov-20 17:10 40.788162 -111.979211 85 4233ft 0kts
12-Nov-20 17:11 40.788162 -111.979211 85 4233ft 0kts
12-Nov-20 17:12 40.788162 -111.979211 85 4233ft 0kts
12-Nov-20 17:13 40.788162 -111.979211 85 4233ft 0kts
12-Nov-20 17:14 40.788162 -111.979211 85 4233ft 0kts
12-Nov-20 17:15 40.788162 -111.979211 85 4233ft 0kts
12-Nov-20 17:16 40.788162 -111.979211 85 4233ft 0kts
12-Nov-20 17:17 40.788162 -111.979211 85 4233ft 0kts
12-Nov-20 17:18 40.788162 -111.979211 85 4233ft 0kts
12-Nov-20 17:19 40.788162 -111.979211 85 4233ft 0kts
12-Nov-20 17:20 40.788162 -111.979211 85 4233ft 0kts
12-Nov-20 17:21 40.788162 -111.979211 85 4233ft 0kts
12-Nov-20 17:22 40.788162 -111.979211 85 4233ft 0kts
12-Nov-20 17:23 40.788162 -111.979211 85 4233ft 0kts
12-Nov-20 17:24 40.788162 -111.979211 85 4233ft 0kts
12-Nov-20 17:25 40.788162 -111.979211 85 4233ft 0kts
12-Nov-20 17:26 40.788082 -111.979685 58 4233ft 3kts
12-Nov-20 17:27 40.787831 -111.980126 29 4233ft 0kts
12-Nov-20 17:28 40.787831 -111.980126 29 4233ft 0kts
12-Nov-20 17:29 40.788367 -111.979906 8 4233ft 8kts
12-Nov-20 17:30 40.789558 -111.979539 65 4233ft 0kts
12-Nov-20 17:31 40.789699 -111.978396 85 4233ft 0kts
12-Nov-20 17:32 40.789699 -111.978396 85 4233ft 0kts
12-Nov-20 17:33 40.789707 -111.978268 84 4233ft 1kts
12-Nov-20 17:34 40.789722 -111.978050 84 4233ft 2kts
12-Nov-20 17:35 40.791793 -111.977281 354 4233ft 12kts
12-Nov-20 17:36 40.795194 -111.977706 355 4233ft 8kts
12-Nov-20 17:37 40.798391 -111.978056 354 4233ft 13kts
12-Nov-20 17:38 40.801686 -111.978443 354 4233ft 7kts
12-Nov-20 17:39 40.805320 -111.978434 354 4233ft 12kts
12-Nov-20 17:40 40.807161 -111.978584 19 4233ft 0kts
12-Nov-20 17:41 40.807097 -111.976921 161 4233ft 6kts
12-Nov-20 17:42 40.797089 -111.975709 174 4233ft 131kts
12-Nov-20 17:43 40.750441 -111.969756 173 5752ft 195kts
12-Nov-20 17:44 40.684014 -111.957191 171 7997ft 259kts
12-Nov-20 17:45 40.613107 -111.943547 171 11570ft 258kts
12-Nov-20 17:46 40.538419 -111.939813 183 13918ft 294kts
12-Nov-20 17:47 40.450718 -111.939842 183 15923ft 335kts
12-Nov-20 17:48 40.355201 -111.939283 183 18315ft 352kts
12-Nov-20 17:49 40.256162 -111.930166 162 20508ft 376kts
12-Nov-20 17:50 40.164626 -111.856028 153 22458ft 395kts
12-Nov-20 17:51 40.079012 -111.761009 125 24232ft 425kts
12-Nov-20 17:52 40.017680 -111.626732 125 25902ft 436kts
12-Nov-20 17:53 39.952692 -111.490796 126 27367ft 447kts
12-Nov-20 17:54 39.886045 -111.351399 125 28628ft 457kts
12-Nov-20 17:55 39.818971 -111.210755 126 29209ft 459kts
12-Nov-20 17:57 39.751018 -111.067931 126 29219ft 473kts
12-Nov-20 17:58 39.680967 -110.920270 125 29230ft 487kts
12-Nov-20 17:59 39.609504 -110.769202 125 29230ft 490kts
12-Nov-20 18:00 39.538691 -110.619111 125 29232ft 489kts
12-Nov-20 18:01 39.468203 -110.469298 125 29233ft 489kts
12-Nov-20 18:02 39.397618 -110.318855 125 29224ft 488kts
12-Nov-20 18:03 39.327496 -110.169000 125 29226ft 489kts
12-Nov-20 18:04 39.257361 -110.018699 125 29223ft 489kts
12-Nov-20 18:05 39.213284 -109.851353 102 29225ft 505kts
12-Nov-20 18:06 39.187467 -109.673236 103 29222ft 505kts
12-Nov-20 18:07 39.161169 -109.495676 103 29224ft 507kts
12-Nov-20 18:08 39.134960 -109.317013 103 29215ft 507kts
12-Nov-20 18:09 39.108988 -109.138201 103 29218ft 509kts
12-Nov-20 18:10 39.083173 -108.958511 103 29227ft 512kts
12-Nov-20 18:11 39.057492 -108.778685 105 29225ft 512kts
12-Nov-20 18:12 38.970377 -108.655544 172 29245ft 459kts
12-Nov-20 18:13 38.847380 -108.630603 173 29245ft 457kts
12-Nov-20 18:14 38.725021 -108.585139 172 29244ft 459kts
12-Nov-20 18:14 38.623216 -108.546161 172 29245ft 459kts
12-Nov-20 18:16 38.481057 -108.491677 172 29246ft 458kts
12-Nov-20 18:16 38.379379 -108.452689 173 29246ft 458kts
12-Nov-20 18:17 38.257531 -108.405953 173 29247ft 457kts
12-Nov-20 18:18 38.136257 -108.359439 173 29247ft 457kts
12-Nov-20 18:19 38.014518 -108.312734 174 29230ft 456kts
12-Nov-20 18:20 37.893616 -108.266339 174 29229ft 456kts
12-Nov-20 18:21 37.772246 -108.219748 174 29214ft 457kts
12-Nov-20 18:22 37.651241 -108.173285 174 29219ft 455kts
12-Nov-20 18:23 37.530193 -108.126797 174 29228ft 455kts
12-Nov-20 18:24 37.409090 -108.080269 174 29236ft 453kts
12-Nov-20 18:25 37.288798 -108.034057 174 29246ft 453kts
12-Nov-20 18:26 37.168723 -107.987894 175 29240ft 451kts
12-Nov-20 18:27 37.048778 -107.941813 175 29227ft 451kts
12-Nov-20 18:28 36.929311 -107.895881 175 29226ft 449kts
12-Nov-20 18:29 36.810392 -107.850162 176 29234ft 447kts
12-Nov-20 18:30 36.691879 -107.804590 176 29234ft 446kts
12-Nov-20 18:31 36.573526 -107.759060 176 29247ft 446kts
12-Nov-20 18:32 36.455877 -107.713801 176 29253ft 443kts
12-Nov-20 18:33 36.338038 -107.668475 176 29253ft 443kts
12-Nov-20 18:34 36.220550 -107.623261 176 29253ft 443kts
12-Nov-20 18:35 36.102486 -107.579291 182 29245ft 432kts
12-Nov-20 18:36 35.985854 -107.543055 179 29244ft 426kts
12-Nov-20 18:37 35.874084 -107.505959 178 27714ft 407kts
12-Nov-20 18:38 35.764696 -107.468675 176 25035ft 410kts
12-Nov-20 18:39 35.656501 -107.435068 174 22834ft 398kts
12-Nov-20 18:40 35.550995 -107.401570 173 20648ft 387kts
12-Nov-20 18:41 35.448306 -107.368506 167 18474ft 381kts
12-Nov-20 18:42 35.376179 -107.273980 125 16679ft 389kts
12-Nov-20 18:43 35.320241 -107.163425 124 14588ft 380kts
12-Nov-20 18:44 35.257411 -107.062805 140 12781ft 354kts
12-Nov-20 18:45 35.186727 -106.984253 139 10826ft 348kts
12-Nov-20 18:46 35.119394 -106.905179 135 9590ft 316kts
12-Nov-20 18:47 35.077675 -106.821403 110 9220ft 260kts
12-Nov-20 18:48 35.047846 -106.745854 118 8682ft 248kts
12-Nov-20 18:49 35.044685 -106.666986 89 6780ft 210kts
12-Nov-20 18:50 35.044446 -106.599200 87 5667ft 216kts
12-Nov-20 18:51 35.036162 -106.528144 126 7053ft 206kts
12-Nov-20 18:52 34.989871 -106.536963 257 8123ft 219kts
12-Nov-20 18:53 34.985293 -106.615773 268 8109ft 242kts
12-Nov-20 18:54 34.982148 -106.698706 268 8101ft 244kts
12-Nov-20 18:55 34.979363 -106.781823 276 8084ft 245kts
12-Nov-20 18:56 35.028495 -106.790190 66 8099ft 245kts
12-Nov-20 18:57 35.044347 -106.716077 85 7358ft 213kts
12-Nov-20 18:58 35.044382 -106.651752 89 5886ft 162kts
12-Nov-20 18:59 35.044257 -106.603146 90 5323ft 84kts
12-Nov-20 19:00 35.045399 -106.596121 29 5326ft 0kts
12-Nov-20 19:01 35.045834 -106.596766 277 5326ft 7kts
12-Nov-20 19:02 35.045839 -106.598395 267 5325ft 15kts
12-Nov-20 19:03 35.045839 -106.603572 302 5323ft 11kts
12-Nov-20 19:04 35.045792 -106.604972 264 5322ft 6kts
12-Nov-20 19:05 35.045802 -106.612233 270 5319ft 23kts

Navigation Log

Ident Type
Flight plan parsing failed, navigation log unavailable